Time;durP1;ratioP1;P1;durP2;ratioP2;P2;SDS_P1;SDS_P2;PMS_P1;PMS_P2;Temp;Humidity;BMP_temperature;BMP_pressure;BME280_temperature;BME280_humidity;BME280_pressure;Samples;Min_cycle;Max_cycle;Signal;HPM_P1;HPM_P2
2023/05/12 00:01:40;;;;;;;7.50;4.20;;;;;;;;;;107805;283;44241;-36
2023/05/12 00:04:14;;;;;;;6.60;3.80;;;;;;;;;;107840;282;42378;-36
2023/05/12 00:06:48;;;;;;;6.60;4.00;;;;;;;;;;107845;282;38835;-36
2023/05/12 00:09:24;;;;;;;5.80;3.60;;;;;;;;;;107839;282;39849;-36
2023/05/12 00:12:01;;;;;;;6.00;3.80;;;;;;;;;;107828;275;42683;-36
2023/05/12 00:14:38;;;;;;;6.70;4.20;;;;;;;;;;107186;282;893969;-37
2023/05/12 00:17:14;;;;;;;6.40;3.80;;;;;;;;;;107852;275;39904;-37
2023/05/12 00:19:48;;;;;;;7.80;3.90;;;;;;;;;;107856;282;39699;-37
2023/05/12 00:22:21;;;;;;;6.90;4.00;;;;;;;;;;107833;275;49730;-37
2023/05/12 00:24:59;;;;;;;6.50;3.70;;;;;;;;;;107869;282;42306;-37
2023/05/12 00:27:36;;;;;;;6.80;4.00;;;;;;;;;;107858;282;38923;-37
2023/05/12 00:30:13;;;;;;;6.40;3.80;;;;;;;;;;107837;282;39891;-37
2023/05/12 00:32:46;;;;;;;6.40;3.90;;;;;;;;;;107855;275;49276;-37
2023/05/12 00:35:20;;;;;;;5.70;3.50;;;;;;;;;;107842;282;42273;-37
2023/05/12 00:37:54;;;;;;;6.50;3.60;;;;;;;;;;107869;282;39070;-37
2023/05/12 00:40:28;;;;;;;5.90;3.50;;;;;;;;;;107839;282;39662;-37
2023/05/12 00:43:02;;;;;;;5.80;3.70;;;;;;;;;;107856;282;49656;-37
2023/05/12 00:45:40;;;;;;;5.80;3.60;;;;;;;;;;107861;282;42177;-37
2023/05/12 00:48:15;;;;;;;6.70;3.50;;;;;;;;;;107864;275;38903;-37
2023/05/12 00:50:48;;;;;;;5.40;3.70;;;;;;;;;;107839;282;39816;-37
2023/05/12 00:53:26;;;;;;;5.30;3.40;;;;;;;;;;107860;282;49082;-37
2023/05/12 00:56:15;;;;;;;6.40;3.80;;;;;;;;;;107835;282;42270;-37
2023/05/12 00:58:53;;;;;;;6.00;3.30;;;;;;;;;;107843;282;38760;-37
2023/05/12 01:01:30;;;;;;;6.50;3.50;;;;;;;;;;107792;282;39694;-37
2023/05/12 01:04:13;;;;;;;5.60;3.40;;;;;;;;;;107857;282;42820;-37
2023/05/12 01:06:57;;;;;;;5.60;3.30;;;;;;;;;;107830;282;42186;-37
2023/05/12 01:09:32;;;;;;;5.70;3.50;;;;;;;;;;107851;282;39579;-37
2023/05/12 01:12:07;;;;;;;5.50;3.20;;;;;;;;;;107822;282;39955;-37
2023/05/12 01:14:42;;;;;;;6.00;3.60;;;;;;;;;;107451;283;483598;-37
2023/05/12 01:17:22;;;;;;;5.30;3.40;;;;;;;;;;107817;277;42250;-37
2023/05/12 01:20:00;;;;;;;5.40;3.20;;;;;;;;;;107902;282;38810;-38
2023/05/12 01:22:38;;;;;;;6.00;3.40;;;;;;;;;;107904;275;39868;-38
2023/05/12 01:25:16;;;;;;;5.50;3.70;;;;;;;;;;107894;282;42732;-38
2023/05/12 01:27:54;;;;;;;5.50;3.40;;;;;;;;;;107957;282;43515;-38
2023/05/12 01:30:29;;;;;;;5.60;3.40;;;;;;;;;;107966;282;38968;-38
2023/05/12 01:33:03;;;;;;;5.20;3.60;;;;;;;;;;107883;282;39759;-38
2023/05/12 01:35:40;;;;;;;6.00;3.30;;;;;;;;;;107893;282;42878;-38
2023/05/12 01:38:15;;;;;;;5.50;3.40;;;;;;;;;;107977;282;42181;-38
2023/05/12 01:40:50;;;;;;;4.90;3.30;;;;;;;;;;107941;282;38804;-38
2023/05/12 01:43:29;;;;;;;5.70;3.30;;;;;;;;;;107912;282;39772;-38
2023/05/12 01:46:04;;;;;;;5.20;3.30;;;;;;;;;;107940;282;42991;-37
2023/05/12 01:48:39;;;;;;;4.90;3.10;;;;;;;;;;107909;283;42164;-36
2023/05/12 01:51:13;;;;;;;4.90;3.20;;;;;;;;;;107933;286;38840;-36
2023/05/12 01:53:48;;;;;;;5.40;3.40;;;;;;;;;;107884;281;41858;-36
2023/05/12 01:56:26;;;;;;;5.00;3.10;;;;;;;;;;107595;275;175605;-37
2023/05/12 01:59:03;;;;;;;5.00;3.10;;;;;;;;;;107910;282;42198;-37
2023/05/12 02:01:38;;;;;;;5.10;3.40;;;;;;;;;;107889;279;38809;-37
2023/05/12 02:04:12;;;;;;;4.90;3.30;;;;;;;;;;107901;282;39637;-37
2023/05/12 02:06:47;;;;;;;4.80;3.30;;;;;;;;;;107964;282;42832;-37
2023/05/12 02:09:22;;;;;;;5.30;3.10;;;;;;;;;;107891;275;42395;-37
2023/05/12 02:11:57;;;;;;;5.10;3.30;;;;;;;;;;107885;275;38862;-37
2023/05/12 02:14:33;;;;;;;5.20;3.10;;;;;;;;;;107860;282;39768;-37
2023/05/12 02:17:07;;;;;;;4.90;2.90;;;;;;;;;;107871;282;42912;-37
2023/05/12 02:19:42;;;;;;;5.10;3.30;;;;;;;;;;107911;282;42175;-37
2023/05/12 02:22:17;;;;;;;5.50;3.50;;;;;;;;;;107888;282;38913;-37
2023/05/12 02:24:53;;;;;;;5.10;3.30;;;;;;;;;;107832;282;40860;-36
2023/05/12 02:27:31;;;;;;;4.80;3.10;;;;;;;;;;107897;282;42945;-37
2023/05/12 02:30:09;;;;;;;4.50;3.00;;;;;;;;;;107894;275;42227;-37
2023/05/12 02:32:44;;;;;;;5.40;3.40;;;;;;;;;;107908;282;38820;-37
2023/05/12 02:35:18;;;;;;;5.40;3.30;;;;;;;;;;107874;275;45103;-37
2023/05/12 02:37:53;;;;;;;4.90;3.10;;;;;;;;;;107822;282;44372;-37
2023/05/12 02:40:32;;;;;;;5.20;3.30;;;;;;;;;;107842;282;42133;-37
2023/05/12 02:43:08;;;;;;;5.40;3.20;;;;;;;;;;107816;282;38774;-37
2023/05/12 02:45:42;;;;;;;5.40;3.30;;;;;;;;;;107860;282;39814;-37
2023/05/12 02:48:18;;;;;;;5.30;3.30;;;;;;;;;;107831;282;43053;-37
2023/05/12 02:50:53;;;;;;;4.70;3.20;;;;;;;;;;107816;282;42339;-37
2023/05/12 02:53:27;;;;;;;4.50;3.00;;;;;;;;;;107811;282;38557;-37
2023/05/12 02:56:03;;;;;;;5.20;3.10;;;;;;;;;;107827;282;47103;-37
2023/05/12 02:58:37;;;;;;;4.80;3.10;;;;;;;;;;107851;282;43144;-36
2023/05/12 03:01:16;;;;;;;5.40;3.40;;;;;;;;;;107812;275;42156;-36
2023/05/12 03:03:50;;;;;;;4.90;3.00;;;;;;;;;;107843;282;38795;-36
2023/05/12 03:06:24;;;;;;;5.00;3.00;;;;;;;;;;107821;278;39778;-37
2023/05/12 03:08:59;;;;;;;4.70;3.20;;;;;;;;;;107841;275;43164;-37
2023/05/12 03:11:33;;;;;;;5.00;3.20;;;;;;;;;;107822;282;43584;-37
2023/05/12 03:14:06;;;;;;;4.90;3.10;;;;;;;;;;107809;275;39987;-37
2023/05/12 03:16:40;;;;;;;5.30;3.10;;;;;;;;;;107846;282;41032;-37
2023/05/12 03:19:15;;;;;;;5.10;3.10;;;;;;;;;;107858;275;43177;-37
2023/05/12 03:21:51;;;;;;;4.90;3.00;;;;;;;;;;107835;282;43460;-36
2023/05/12 03:24:26;;;;;;;4.70;3.10;;;;;;;;;;107720;277;38831;-37
2023/05/12 03:27:01;;;;;;;5.20;3.10;;;;;;;;;;107825;282;39778;-37
2023/05/12 03:29:35;;;;;;;5.10;3.30;;;;;;;;;;107820;283;44203;-37
2023/05/12 03:32:10;;;;;;;4.90;3.00;;;;;;;;;;107837;282;43311;-37
2023/05/12 03:34:50;;;;;;;4.60;3.10;;;;;;;;;;107774;275;39962;-38
2023/05/12 03:37:25;;;;;;;5.30;3.20;;;;;;;;;;107822;275;39720;-37
2023/05/12 03:39:58;;;;;;;5.50;3.00;;;;;;;;;;107868;282;42865;-37
2023/05/12 03:42:32;;;;;;;4.70;2.90;;;;;;;;;;107805;275;43379;-37
2023/05/12 03:45:09;;;;;;;4.70;3.10;;;;;;;;;;107831;274;39908;-37
2023/05/12 03:47:42;;;;;;;4.60;2.80;;;;;;;;;;107862;275;39968;-37
2023/05/12 03:50:16;;;;;;;4.90;3.20;;;;;;;;;;107847;275;42853;-37
2023/05/12 03:52:54;;;;;;;4.40;3.00;;;;;;;;;;107865;282;42241;-36
2023/05/12 03:55:30;;;;;;;5.00;2.90;;;;;;;;;;107841;282;39676;-37
2023/05/12 03:58:04;;;;;;;4.50;3.10;;;;;;;;;;107741;275;175261;-37
2023/05/12 04:00:41;;;;;;;4.60;2.90;;;;;;;;;;107847;282;42935;-37
2023/05/12 04:03:16;;;;;;;4.40;3.10;;;;;;;;;;107855;282;42141;-37
2023/05/12 04:05:57;;;;;;;5.40;3.20;;;;;;;;;;107834;275;39199;-37
2023/05/12 04:08:33;;;;;;;4.90;3.20;;;;;;;;;;107876;275;40173;-37
2023/05/12 04:11:10;;;;;;;4.50;3.00;;;;;;;;;;107833;282;43292;-37
2023/05/12 04:13:47;;;;;;;5.20;3.20;;;;;;;;;;107857;280;42152;-37
2023/05/12 04:16:23;;;;;;;5.00;3.10;;;;;;;;;;107846;282;39869;-37
2023/05/12 04:18:58;;;;;;;4.30;3.00;;;;;;;;;;107848;275;40877;-37
2023/05/12 04:21:34;;;;;;;5.40;3.20;;;;;;;;;;107708;282;175634;-37
2023/05/12 04:24:09;;;;;;;5.80;3.10;;;;;;;;;;107828;275;42141;-37
2023/05/12 04:26:43;;;;;;;5.00;3.20;;;;;;;;;;107890;282;39070;-37
2023/05/12 04:29:19;;;;;;;4.60;2.90;;;;;;;;;;107849;282;39703;-37
2023/05/12 04:31:54;;;;;;;4.70;2.80;;;;;;;;;;107879;282;43061;-37
2023/05/12 04:34:29;;;;;;;5.80;3.10;;;;;;;;;;107838;282;42174;-37
2023/05/12 04:37:05;;;;;;;4.70;3.00;;;;;;;;;;107853;282;38768;-37
2023/05/12 04:39:38;;;;;;;4.80;2.90;;;;;;;;;;107757;275;174572;-37
2023/05/12 04:42:12;;;;;;;5.80;3.20;;;;;;;;;;107839;282;42903;-37
2023/05/12 04:44:47;;;;;;;5.10;3.00;;;;;;;;;;107835;275;42228;-37
2023/05/12 04:47:21;;;;;;;5.30;3.30;;;;;;;;;;107806;275;38791;-37
2023/05/12 04:49:56;;;;;;;4.80;2.90;;;;;;;;;;107799;275;39871;-37
2023/05/12 04:52:32;;;;;;;4.90;3.10;;;;;;;;;;107748;275;175225;-37
2023/05/12 04:55:08;;;;;;;5.80;3.20;;;;;;;;;;107837;283;43332;-38
2023/05/12 04:57:43;;;;;;;5.10;2.90;;;;;;;;;;107801;275;38895;-37
2023/05/12 05:00:18;;;;;;;5.00;3.00;;;;;;;;;;107850;275;40894;-37
2023/05/12 05:02:53;;;;;;;5.30;3.00;;;;;;;;;;107878;275;43279;-37
2023/05/12 05:05:28;;;;;;;4.80;2.90;;;;;;;;;;107814;282;42271;-37
2023/05/12 05:08:02;;;;;;;4.60;2.90;;;;;;;;;;107721;284;38806;-37
2023/05/12 05:10:37;;;;;;;4.80;3.10;;;;;;;;;;107834;275;39681;-37
2023/05/12 05:13:13;;;;;;;5.50;3.20;;;;;;;;;;107841;282;42902;-38
2023/05/12 05:15:54;;;;;;;4.70;2.90;;;;;;;;;;107847;275;43320;-38
2023/05/12 05:18:30;;;;;;;4.80;2.90;;;;;;;;;;107936;283;39003;-38
2023/05/12 05:21:04;;;;;;;5.00;2.90;;;;;;;;;;107955;275;39869;-38
2023/05/12 05:23:38;;;;;;;4.80;2.90;;;;;;;;;;107928;282;42908;-38
2023/05/12 05:26:12;;;;;;;5.60;2.80;;;;;;;;;;107910;282;42365;-38
2023/05/12 05:28:47;;;;;;;5.10;2.80;;;;;;;;;;107844;287;38786;-37
2023/05/12 05:31:23;;;;;;;4.70;3.10;;;;;;;;;;107939;279;40557;-38
2023/05/12 05:33:58;;;;;;;4.60;2.80;;;;;;;;;;107905;275;43054;-37
2023/05/12 05:36:36;;;;;;;4.20;2.50;;;;;;;;;;107939;282;43266;-38
2023/05/12 05:39:10;;;;;;;4.80;2.80;;;;;;;;;;107913;275;44473;-37
2023/05/12 05:41:44;;;;;;;4.80;2.80;;;;;;;;;;107964;275;40831;-37
2023/05/12 05:44:18;;;;;;;4.40;2.50;;;;;;;;;;107879;282;44138;-37
2023/05/12 05:46:51;;;;;;;4.80;2.70;;;;;;;;;;107817;282;42146;-37
2023/05/12 05:49:25;;;;;;;4.30;2.50;;;;;;;;;;107813;282;46918;-37
2023/05/12 05:51:59;;;;;;;5.00;2.70;;;;;;;;;;107858;282;41017;-37
2023/05/12 05:54:35;;;;;;;4.00;2.50;;;;;;;;;;107894;282;42861;-37
2023/05/12 05:57:09;;;;;;;4.50;2.90;;;;;;;;;;107869;282;42480;-37
2023/05/12 05:59:42;;;;;;;4.60;2.50;;;;;;;;;;107807;282;44493;-37
2023/05/12 06:02:15;;;;;;;4.60;2.70;;;;;;;;;;107856;282;39692;-37
2023/05/12 06:04:49;;;;;;;4.90;2.80;;;;;;;;;;107850;283;44212;-37
2023/05/12 06:07:22;;;;;;;4.60;2.60;;;;;;;;;;107863;282;42523;-37
2023/05/12 06:09:59;;;;;;;4.80;2.80;;;;;;;;;;107813;282;44533;-36
2023/05/12 06:12:35;;;;;;;4.50;2.70;;;;;;;;;;107858;282;40002;-36
2023/05/12 06:15:11;;;;;;;4.80;2.80;;;;;;;;;;107872;282;42950;-36
2023/05/12 06:17:46;;;;;;;4.70;2.70;;;;;;;;;;107879;282;42258;-36
2023/05/12 06:20:22;;;;;;;4.70;2.60;;;;;;;;;;107883;282;38856;-36
2023/05/12 06:22:55;;;;;;;4.50;2.90;;;;;;;;;;107860;283;39804;-36
2023/05/12 06:25:33;;;;;;;4.70;2.60;;;;;;;;;;107840;283;42638;-36
2023/05/12 06:28:08;;;;;;;4.50;2.60;;;;;;;;;;107787;283;42176;-36
2023/05/12 06:30:42;;;;;;;4.10;2.70;;;;;;;;;;107819;282;44987;-36
2023/05/12 06:33:18;;;;;;;4.90;2.70;;;;;;;;;;107855;282;39864;-36
2023/05/12 06:35:52;;;;;;;4.50;2.50;;;;;;;;;;107847;282;43040;-36
2023/05/12 06:38:26;;;;;;;4.80;2.70;;;;;;;;;;107798;282;42329;-36
2023/05/12 06:41:03;;;;;;;5.00;2.60;;;;;;;;;;107858;275;47221;-36
2023/05/12 06:43:38;;;;;;;4.10;2.40;;;;;;;;;;107822;280;39809;-35
2023/05/12 06:46:15;;;;;;;4.50;2.60;;;;;;;;;;107804;275;43150;-35
2023/05/12 06:48:54;;;;;;;4.40;2.40;;;;;;;;;;107777;283;42238;-36
2023/05/12 06:51:27;;;;;;;5.50;2.60;;;;;;;;;;107872;283;38740;-36
2023/05/12 06:54:02;;;;;;;5.10;2.50;;;;;;;;;;107852;282;39641;-36
2023/05/12 06:56:43;;;;;;;4.40;2.60;;;;;;;;;;107821;282;42873;-36
2023/05/12 06:59:17;;;;;;;5.00;2.50;;;;;;;;;;107817;282;42294;-36
2023/05/12 07:01:53;;;;;;;5.20;2.60;;;;;;;;;;107831;275;38820;-36
2023/05/12 07:04:28;;;;;;;4.90;2.50;;;;;;;;;;107820;275;40853;-36
2023/05/12 07:07:03;;;;;;;4.60;2.60;;;;;;;;;;107904;282;43128;-37
2023/05/12 07:09:39;;;;;;;4.30;2.40;;;;;;;;;;107822;282;43220;-36
2023/05/12 07:12:14;;;;;;;4.30;2.40;;;;;;;;;;107866;282;40338;-37
2023/05/12 07:14:47;;;;;;;4.70;2.20;;;;;;;;;;107827;282;39833;-37
2023/05/12 07:17:22;;;;;;;5.50;2.50;;;;;;;;;;107834;282;43006;-37
2023/05/12 07:19:58;;;;;;;4.30;2.60;;;;;;;;;;107856;282;44400;-38
2023/05/12 07:22:35;;;;;;;4.60;2.30;;;;;;;;;;107773;282;38778;-38
2023/05/12 07:25:12;;;;;;;4.10;2.40;;;;;;;;;;107872;282;39673;-37
2023/05/12 07:27:46;;;;;;;5.50;2.60;;;;;;;;;;107866;282;43914;-38
2023/05/12 07:30:23;;;;;;;4.90;2.50;;;;;;;;;;107840;282;42639;-37
2023/05/12 07:32:57;;;;;;;4.80;2.50;;;;;;;;;;107826;282;38570;-37
2023/05/12 07:35:32;;;;;;;4.20;2.50;;;;;;;;;;107821;282;39826;-37
2023/05/12 07:38:14;;;;;;;4.80;2.40;;;;;;;;;;107834;282;42940;-37
2023/05/12 07:40:48;;;;;;;4.70;2.40;;;;;;;;;;107839;282;42220;-34
2023/05/12 07:43:24;;;;;;;5.80;2.40;;;;;;;;;;107793;275;39929;-34
2023/05/12 07:45:59;;;;;;;3.90;2.20;;;;;;;;;;107851;282;40039;-35
2023/05/12 07:48:38;;;;;;;4.30;2.20;;;;;;;;;;107837;282;42774;-35
2023/05/12 07:51:13;;;;;;;4.30;2.20;;;;;;;;;;107830;282;43402;-35
2023/05/12 07:53:47;;;;;;;4.30;2.20;;;;;;;;;;107847;275;40027;-35
2023/05/12 07:56:21;;;;;;;4.60;2.30;;;;;;;;;;107864;282;40903;-35
2023/05/12 07:58:55;;;;;;;3.90;2.00;;;;;;;;;;107740;282;175541;-36
2023/05/12 08:01:30;;;;;;;4.80;2.30;;;;;;;;;;107820;275;42127;-35
2023/05/12 08:04:05;;;;;;;3.90;2.10;;;;;;;;;;107843;282;39212;-35
2023/05/12 08:06:39;;;;;;;4.70;2.30;;;;;;;;;;107873;282;39696;-36
2023/05/12 08:09:13;;;;;;;3.90;2.10;;;;;;;;;;107869;282;42850;-38
2023/05/12 08:11:48;;;;;;;4.30;2.40;;;;;;;;;;107808;275;42599;-39
2023/05/12 08:14:27;;;;;;;4.50;2.10;;;;;;;;;;107874;275;38807;-38
2023/05/12 08:17:01;;;;;;;4.30;2.20;;;;;;;;;;107879;275;39980;-38
2023/05/12 08:19:38;;;;;;;4.40;1.90;;;;;;;;;;107836;275;42864;-37
2023/05/12 08:22:14;;;;;;;3.80;2.10;;;;;;;;;;107826;282;42243;-37
2023/05/12 08:24:51;;;;;;;3.90;1.90;;;;;;;;;;107723;275;175521;-37
2023/05/12 08:27:28;;;;;;;3.70;1.90;;;;;;;;;;107831;282;39790;-39
2023/05/12 08:30:01;;;;;;;4.90;2.00;;;;;;;;;;107755;282;174987;-37
2023/05/12 08:32:36;;;;;;;3.70;1.70;;;;;;;;;;107841;282;42330;-39
2023/05/12 08:35:10;;;;;;;3.80;2.00;;;;;;;;;;107814;282;38758;-40
2023/05/12 08:37:45;;;;;;;3.60;1.80;;;;;;;;;;107866;275;39717;-36
2023/05/12 08:40:24;;;;;;;3.80;1.80;;;;;;;;;;107828;282;44216;-37
2023/05/12 08:43:10;;;;;;;3.70;1.80;;;;;;;;;;107785;282;42161;-39
2023/05/12 08:45:44;;;;;;;4.00;1.70;;;;;;;;;;107862;275;38878;-38
2023/05/12 08:48:19;;;;;;;4.10;1.80;;;;;;;;;;107799;275;39687;-40
2023/05/12 08:50:55;;;;;;;3.80;1.70;;;;;;;;;;107825;275;42850;-38
2023/05/12 08:53:30;;;;;;;3.50;1.90;;;;;;;;;;107923;275;47897;-39
2023/05/12 08:56:09;;;;;;;4.50;2.00;;;;;;;;;;107867;282;38771;-38
2023/05/12 08:58:48;;;;;;;4.30;2.10;;;;;;;;;;107865;282;39782;-38
2023/05/12 09:01:24;;;;;;;3.80;2.00;;;;;;;;;;107774;278;45007;-38
2023/05/12 09:04:02;;;;;;;4.40;1.90;;;;;;;;;;107829;275;49414;-38
2023/05/12 09:06:38;;;;;;;3.80;1.90;;;;;;;;;;107688;280;175137;-38
2023/05/12 09:09:15;;;;;;;3.70;1.90;;;;;;;;;;107820;275;40776;-38
2023/05/12 09:11:52;;;;;;;4.10;2.00;;;;;;;;;;107772;274;43031;-39
2023/05/12 09:14:27;;;;;;;3.70;1.90;;;;;;;;;;107253;282;732295;-38
2023/05/12 09:17:05;;;;;;;4.70;1.90;;;;;;;;;;107782;277;38771;-39
2023/05/12 09:19:38;;;;;;;3.70;2.00;;;;;;;;;;107912;275;39885;-39
2023/05/12 09:22:13;;;;;;;4.60;2.20;;;;;;;;;;107827;282;42912;-39
2023/05/12 09:24:46;;;;;;;4.60;2.20;;;;;;;;;;107963;283;42255;-39
2023/05/12 09:27:28;;;;;;;4.70;2.40;;;;;;;;;;108028;275;38815;-39
2023/05/12 09:30:03;;;;;;;4.50;2.50;;;;;;;;;;107956;282;40860;-40
2023/05/12 09:32:38;;;;;;;3.80;2.20;;;;;;;;;;107927;282;43996;-39
2023/05/12 09:35:13;;;;;;;4.40;2.60;;;;;;;;;;107946;283;43468;-39
2023/05/12 09:37:49;;;;;;;4.10;2.60;;;;;;;;;;107960;283;38800;-39
2023/05/12 09:40:22;;;;;;;5.30;3.00;;;;;;;;;;107947;275;39660;-38
2023/05/12 09:42:56;;;;;;;5.40;2.90;;;;;;;;;;107926;282;43484;-38
2023/05/12 09:45:33;;;;;;;5.00;2.80;;;;;;;;;;107929;283;42173;-41
2023/05/12 09:48:13;;;;;;;5.10;3.00;;;;;;;;;;107951;283;38861;-40
2023/05/12 09:50:49;;;;;;;4.80;2.90;;;;;;;;;;107984;283;39735;-38
2023/05/12 09:53:23;;;;;;;4.70;2.70;;;;;;;;;;107944;283;42874;-38
2023/05/12 09:55:56;;;;;;;4.80;2.50;;;;;;;;;;107950;283;42184;-38
2023/05/12 09:58:30;;;;;;;4.90;2.70;;;;;;;;;;107948;282;38825;-38
2023/05/12 10:01:03;;;;;;;4.00;2.40;;;;;;;;;;107969;282;39709;-38
2023/05/12 10:03:42;;;;;;;4.60;2.60;;;;;;;;;;107878;282;42918;-38
2023/05/12 10:06:23;;;;;;;4.60;2.50;;;;;;;;;;107936;283;42309;-38
2023/05/12 10:09:04;;;;;;;4.20;2.30;;;;;;;;;;107926;282;39933;-36
2023/05/12 10:11:39;;;;;;;4.50;2.30;;;;;;;;;;107948;282;39732;-37
2023/05/12 10:14:14;;;;;;;4.60;2.40;;;;;;;;;;107866;282;43157;-38
2023/05/12 10:16:49;;;;;;;4.50;2.40;;;;;;;;;;107933;275;42143;-37
2023/05/12 10:19:25;;;;;;;4.20;2.20;;;;;;;;;;107718;277;38990;-37
2023/05/12 10:22:02;;;;;;;4.00;2.30;;;;;;;;;;107919;282;39700;-38
2023/05/12 10:24:37;;;;;;;4.90;2.60;;;;;;;;;;107925;282;43097;-38
2023/05/12 10:27:11;;;;;;;4.40;2.50;;;;;;;;;;107934;282;42186;-42
2023/05/12 10:29:46;;;;;;;4.00;2.30;;;;;;;;;;107924;282;38846;-38
2023/05/12 10:32:20;;;;;;;4.30;2.10;;;;;;;;;;107867;287;39467;-38
2023/05/12 10:34:53;;;;;;;5.50;2.40;;;;;;;;;;107826;282;43008;-39
2023/05/12 10:37:30;;;;;;;3.80;2.20;;;;;;;;;;107873;275;43298;-38
2023/05/12 10:40:06;;;;;;;4.40;2.40;;;;;;;;;;107887;282;39117;-40
2023/05/12 10:42:43;;;;;;;4.10;2.10;;;;;;;;;;107888;282;40833;-43
2023/05/12 10:45:22;;;;;;;4.50;2.00;;;;;;;;;;107853;282;42670;-39
2023/05/12 10:48:07;;;;;;;4.30;2.00;;;;;;;;;;107854;275;42581;-39
2023/05/12 10:50:54;;;;;;;4.90;2.20;;;;;;;;;;107915;282;38915;-40
2023/05/12 10:53:34;;;;;;;4.10;2.00;;;;;;;;;;107851;287;39708;-40
2023/05/12 10:56:28;;;;;;;4.10;2.30;;;;;;;;;;107836;282;49803;-39
2023/05/12 10:59:17;;;;;;;4.60;1.80;;;;;;;;;;107844;275;42264;-40
2023/05/12 11:02:04;;;;;;;4.30;2.00;;;;;;;;;;107874;282;38851;-40
2023/05/12 11:04:41;;;;;;;3.40;1.80;;;;;;;;;;107805;280;40879;-40
2023/05/12 11:07:19;;;;;;;4.20;2.10;;;;;;;;;;107910;282;43046;-40
2023/05/12 11:09:56;;;;;;;4.20;1.80;;;;;;;;;;107771;284;43300;-39
2023/05/12 11:12:36;;;;;;;3.60;1.90;;;;;;;;;;107747;284;38764;-40
2023/05/12 11:15:12;;;;;;;3.60;1.70;;;;;;;;;;107748;283;39896;-40
2023/05/12 11:17:46;;;;;;;3.60;1.80;;;;;;;;;;107751;276;44167;-40
2023/05/12 11:20:26;;;;;;;3.60;2.00;;;;;;;;;;107770;276;42212;-38
2023/05/12 11:23:03;;;;;;;3.70;1.90;;;;;;;;;;107772;284;38803;-35
2023/05/12 11:25:37;;;;;;;3.20;1.90;;;;;;;;;;107694;276;40914;-38
2023/05/12 11:28:13;;;;;;;3.70;1.80;;;;;;;;;;107727;283;44060;-38
2023/05/12 11:30:53;;;;;;;3.40;1.70;;;;;;;;;;107773;283;42151;-38
2023/05/12 11:33:27;;;;;;;3.10;1.70;;;;;;;;;;107745;283;40241;-38
2023/05/12 11:36:06;;;;;;;3.50;1.80;;;;;;;;;;107700;283;40990;-38
2023/05/12 11:38:39;;;;;;;3.20;1.60;;;;;;;;;;107755;283;42901;-36
2023/05/12 11:41:12;;;;;;;4.10;1.80;;;;;;;;;;107736;284;42336;-36
2023/05/12 11:43:46;;;;;;;3.30;1.70;;;;;;;;;;107648;276;193158;-36
2023/05/12 11:46:27;;;;;;;3.30;1.70;;;;;;;;;;107709;283;39706;-36
2023/05/12 11:49:03;;;;;;;3.10;1.70;;;;;;;;;;107784;283;43019;-36
2023/05/12 11:51:36;;;;;;;3.30;1.70;;;;;;;;;;107795;284;42142;-38
2023/05/12 11:54:10;;;;;;;3.30;1.80;;;;;;;;;;107776;283;39164;-37
2023/05/12 11:56:51;;;;;;;3.50;1.90;;;;;;;;;;107750;283;39703;-38
2023/05/12 11:59:32;;;;;;;3.30;1.80;;;;;;;;;;107814;284;43001;-38
2023/05/12 12:02:06;;;;;;;3.30;1.70;;;;;;;;;;107784;283;43207;-40
2023/05/12 12:04:41;;;;;;;3.10;1.80;;;;;;;;;;107822;283;38827;-39
2023/05/12 12:07:14;;;;;;;3.50;1.80;;;;;;;;;;107734;283;39705;-39
2023/05/12 12:09:48;;;;;;;2.80;1.60;;;;;;;;;;107746;283;42687;-39
2023/05/12 12:12:21;;;;;;;2.70;1.50;;;;;;;;;;107766;283;42092;-39
2023/05/12 12:14:59;;;;;;;3.00;1.60;;;;;;;;;;107792;284;38783;-40
2023/05/12 12:17:32;;;;;;;3.30;1.80;;;;;;;;;;107760;284;40993;-39
2023/05/12 12:20:07;;;;;;;3.20;1.60;;;;;;;;;;107807;283;44073;-40
2023/05/12 12:22:41;;;;;;;3.80;1.70;;;;;;;;;;107786;283;42209;-40
2023/05/12 12:25:15;;;;;;;3.40;1.50;;;;;;;;;;107801;285;38778;-37
2023/05/12 12:27:49;;;;;;;4.30;1.80;;;;;;;;;;107729;283;39612;-35
2023/05/12 12:30:23;;;;;;;3.80;1.50;;;;;;;;;;107779;283;42874;-38
2023/05/12 12:32:56;;;;;;;3.10;1.60;;;;;;;;;;107726;283;42170;-37
2023/05/12 12:35:30;;;;;;;3.10;1.70;;;;;;;;;;107775;276;38762;-41
2023/05/12 12:38:05;;;;;;;4.40;2.00;;;;;;;;;;107701;276;39731;-40
2023/05/12 12:40:38;;;;;;;4.40;2.00;;;;;;;;;;107682;283;42852;-39
2023/05/12 12:43:12;;;;;;;5.80;2.40;;;;;;;;;;107772;281;42302;-39
2023/05/12 12:45:47;;;;;;;4.50;2.40;;;;;;;;;;107773;283;38596;-38
2023/05/12 12:48:23;;;;;;;5.30;2.70;;;;;;;;;;107669;283;39822;-39
2023/05/12 12:50:56;;;;;;;4.30;2.50;;;;;;;;;;107760;285;42991;-38
2023/05/12 12:53:29;;;;;;;4.70;2.60;;;;;;;;;;107744;283;42229;-39
2023/05/12 12:56:02;;;;;;;4.60;2.70;;;;;;;;;;107750;283;38731;-38
2023/05/12 12:58:36;;;;;;;5.10;2.70;;;;;;;;;;107672;284;39687;-38
2023/05/12 13:01:09;;;;;;;4.70;2.60;;;;;;;;;;107763;283;44137;-40
2023/05/12 13:03:43;;;;;;;4.50;2.60;;;;;;;;;;107747;276;42156;-38
2023/05/12 13:06:17;;;;;;;4.50;2.70;;;;;;;;;;107744;276;38861;-37
2023/05/12 13:08:50;;;;;;;4.70;2.40;;;;;;;;;;107792;282;39826;-37
2023/05/12 13:11:23;;;;;;;4.60;2.80;;;;;;;;;;107903;282;42924;-37
2023/05/12 13:13:56;;;;;;;4.50;2.50;;;;;;;;;;107892;282;42186;-37
2023/05/12 13:16:31;;;;;;;5.30;2.70;;;;;;;;;;107847;282;38853;-37
2023/05/12 13:19:05;;;;;;;5.10;2.70;;;;;;;;;;107924;283;39685;-37
2023/05/12 13:21:38;;;;;;;5.00;2.60;;;;;;;;;;107924;283;42889;-38
2023/05/12 13:24:11;;;;;;;4.10;2.50;;;;;;;;;;107923;282;42183;-38
2023/05/12 13:26:44;;;;;;;4.40;2.30;;;;;;;;;;107971;282;40037;-38
2023/05/12 13:29:18;;;;;;;4.40;2.40;;;;;;;;;;107890;279;41183;-36
2023/05/12 13:31:51;;;;;;;4.40;2.30;;;;;;;;;;107970;282;43109;-37
2023/05/12 13:34:24;;;;;;;4.20;2.30;;;;;;;;;;107965;282;42186;-37
2023/05/12 13:36:57;;;;;;;4.30;2.30;;;;;;;;;;107959;282;41275;-37
2023/05/12 13:39:31;;;;;;;4.10;2.10;;;;;;;;;;107918;282;39836;-37
2023/05/12 13:42:04;;;;;;;4.30;2.30;;;;;;;;;;108003;275;43013;-37
2023/05/12 13:44:37;;;;;;;5.40;3.00;;;;;;;;;;107994;282;42232;-37
2023/05/12 13:47:10;;;;;;;5.70;3.10;;;;;;;;;;107988;282;38554;-37
2023/05/12 13:49:44;;;;;;;5.50;3.20;;;;;;;;;;107947;282;41057;-37
2023/05/12 13:52:20;;;;;;;5.50;3.10;;;;;;;;;;107903;282;42904;-37
2023/05/12 13:54:54;;;;;;;5.80;3.00;;;;;;;;;;107930;283;42174;-37
2023/05/12 13:57:30;;;;;;;5.00;2.80;;;;;;;;;;107950;275;38537;-37
2023/05/12 14:00:04;;;;;;;5.50;3.10;;;;;;;;;;107893;282;46453;-37
2023/05/12 14:02:37;;;;;;;5.00;2.80;;;;;;;;;;107768;282;42999;-37
2023/05/12 14:05:12;;;;;;;5.20;2.80;;;;;;;;;;107866;282;42165;-37
2023/05/12 14:07:45;;;;;;;5.20;2.80;;;;;;;;;;107890;275;38897;-37
2023/05/12 14:10:21;;;;;;;5.00;2.60;;;;;;;;;;107802;287;45744;-37
2023/05/12 14:12:54;;;;;;;4.40;2.60;;;;;;;;;;107893;275;42927;-37
2023/05/12 14:15:28;;;;;;;5.40;2.70;;;;;;;;;;107886;275;42184;-37
2023/05/12 14:18:20;;;;;;;4.80;2.40;;;;;;;;;;107828;282;38922;-37
2023/05/12 14:20:54;;;;;;;4.50;2.60;;;;;;;;;;107894;282;39793;-37
2023/05/12 14:23:27;;;;;;;5.30;2.50;;;;;;;;;;107895;282;43139;-37
2023/05/12 14:26:02;;;;;;;5.20;2.40;;;;;;;;;;107876;280;42153;-37
2023/05/12 14:28:37;;;;;;;4.80;2.40;;;;;;;;;;107783;282;38768;-39
2023/05/12 14:31:10;;;;;;;4.30;2.40;;;;;;;;;;107926;282;40909;-37
2023/05/12 14:33:44;;;;;;;4.70;2.40;;;;;;;;;;107937;282;43294;-37
2023/05/12 14:36:17;;;;;;;4.30;2.20;;;;;;;;;;107887;283;42446;-36
2023/05/12 14:38:50;;;;;;;4.10;2.10;;;;;;;;;;107751;282;175524;-37
2023/05/12 14:41:24;;;;;;;4.00;2.20;;;;;;;;;;107926;282;39512;-38
2023/05/12 14:43:57;;;;;;;4.50;2.30;;;;;;;;;;107944;275;43171;-39
2023/05/12 14:46:31;;;;;;;4.60;2.40;;;;;;;;;;107820;283;175454;-37
2023/05/12 14:49:09;;;;;;;3.60;1.90;;;;;;;;;;107914;282;38607;-36
2023/05/12 14:51:42;;;;;;;3.70;2.00;;;;;;;;;;107949;282;40744;-37
2023/05/12 14:54:16;;;;;;;4.40;2.00;;;;;;;;;;107920;282;42891;-37
2023/05/12 14:56:58;;;;;;;4.90;2.10;;;;;;;;;;107919;282;42156;-36
2023/05/12 14:59:33;;;;;;;3.80;2.10;;;;;;;;;;107914;283;38772;-38
2023/05/12 15:02:06;;;;;;;3.80;2.00;;;;;;;;;;107909;282;39732;-36
2023/05/12 15:04:40;;;;;;;3.90;2.00;;;;;;;;;;107881;282;44012;-36
2023/05/12 15:07:13;;;;;;;3.90;2.00;;;;;;;;;;107860;275;42143;-36
2023/05/12 15:09:46;;;;;;;4.30;2.10;;;;;;;;;;107776;283;38932;-34
2023/05/12 15:12:20;;;;;;;3.90;1.90;;;;;;;;;;107793;283;39892;-35
2023/05/12 15:14:54;;;;;;;3.70;1.80;;;;;;;;;;107776;283;42948;-35
2023/05/12 15:17:29;;;;;;;4.90;1.80;;;;;;;;;;107744;283;42191;-33
2023/05/12 15:20:04;;;;;;;4.00;1.80;;;;;;;;;;107767;283;38871;-32
2023/05/12 15:22:40;;;;;;;3.50;1.80;;;;;;;;;;107807;283;39896;-37
2023/05/12 15:25:14;;;;;;;4.30;1.80;;;;;;;;;;107793;283;42636;-33
2023/05/12 15:27:48;;;;;;;4.00;2.00;;;;;;;;;;107783;283;42252;-34
2023/05/12 15:30:22;;;;;;;3.20;1.60;;;;;;;;;;107780;283;38748;-35
2023/05/12 15:32:55;;;;;;;3.60;1.60;;;;;;;;;;107817;283;39743;-35